Time;durP1;ratioP1;P1;durP2;ratioP2;P2;SDS_P1;SDS_P2;PMS_P1;PMS_P2;Temp;Humidity;BMP_temperature;BMP_pressure;BME280_temperature;BME280_humidity;BME280_pressure;Samples;Min_cycle;Max_cycle;Signal;HPM_P1;HPM_P2
2023/01/22 00:01:07;;;;;;;8.82;6.47;;;;;;;;;;4970254;28;20749;-86
2023/01/22 00:03:36;;;;;;;9.60;5.93;;;;;;;;;;4979513;28;20105;-84
2023/01/22 00:06:07;;;;;;;6.75;5.43;;;;;;;;;;4988387;28;20047;-88
2023/01/22 00:08:38;;;;;;;7.85;5.78;;;;;;;;;;4971006;28;20054;-84
2023/01/22 00:11:06;;;;;;;8.70;5.65;;;;;;;;;;4986682;28;20060;-84
2023/01/22 00:13:34;;;;;;;6.13;5.32;;;;;;;;;;4988154;28;20073;-84
2023/01/22 00:16:02;;;;;;;12.57;5.93;;;;;;;;;;4967958;28;20141;-85
2023/01/22 00:18:29;;;;;;;6.63;5.50;;;;;;;;;;4990135;28;20038;-85
2023/01/22 00:20:56;;;;;;;8.00;5.93;;;;;;;;;;4986079;28;20121;-84
2023/01/22 00:23:24;;;;;;;7.15;5.88;;;;;;;;;;4987893;28;20054;-85
2023/01/22 00:26:06;;;;;;;7.07;5.90;;;;;;;;;;4986174;28;20076;-83
2023/01/22 00:28:36;;;;;;;9.20;5.93;;;;;;;;;;4971934;28;20468;-84
2023/01/22 00:31:05;;;;;;;8.27;5.70;;;;;;;;;;4988367;28;20117;-85
2023/01/22 00:33:34;;;;;;;7.32;5.22;;;;;;;;;;4996606;28;20069;-84
2023/01/22 00:36:05;;;;;;;6.90;5.15;;;;;;;;;;4993861;28;20058;-84
2023/01/22 00:38:33;;;;;;;9.18;5.75;;;;;;;;;;4985187;28;20717;-85
2023/01/22 00:41:01;;;;;;;8.50;6.05;;;;;;;;;;4973722;28;20047;-86
2023/01/22 00:43:29;;;;;;;8.02;6.03;;;;;;;;;;4986171;28;20560;-84
2023/01/22 00:45:59;;;;;;;10.65;9.68;;;;;;;;;;4981237;28;20056;-85
2023/01/22 00:48:28;;;;;;;9.13;6.50;;;;;;;;;;4969706;28;20151;-85
2023/01/22 00:50:56;;;;;;;7.40;5.53;;;;;;;;;;4967421;28;20400;-85
2023/01/22 00:53:24;;;;;;;8.23;5.97;;;;;;;;;;4986195;28;20057;-84
2023/01/22 00:55:53;;;;;;;8.35;7.55;;;;;;;;;;4983904;28;20130;-85
2023/01/22 00:58:21;;;;;;;7.95;5.97;;;;;;;;;;4964284;28;20437;-85
2023/01/22 01:00:50;;;;;;;10.43;6.70;;;;;;;;;;4978607;28;20090;-84
2023/01/22 01:03:31;;;;;;;7.80;5.97;;;;;;;;;;4971234;28;20436;-85
2023/01/22 01:06:02;;;;;;;10.45;7.07;;;;;;;;;;4970886;28;20038;-84
2023/01/22 01:08:30;;;;;;;9.05;6.95;;;;;;;;;;4970101;28;20101;-84
2023/01/22 01:11:00;;;;;;;8.35;6.43;;;;;;;;;;4970958;28;20125;-84
2023/01/22 01:13:41;;;;;;;;;;;;;;;;;;;;;
2023/01/22 01:16:38;;;;;;;10.57;9.57;;;;;;;;;;4944673;28;20093;-86
2023/01/22 01:19:09;;;;;;;8.32;6.22;;;;;;;;;;4947182;28;20055;-85
2023/01/22 01:21:43;;;;;;;11.40;6.70;;;;;;;;;;4934049;29;20118;-86
2023/01/22 01:24:13;;;;;;;8.25;6.30;;;;;;;;;;4956827;28;20050;-85
2023/01/22 01:26:43;;;;;;;11.20;7.38;;;;;;;;;;4950673;29;20094;-87
2023/01/22 01:29:19;;;;;;;10.63;6.95;;;;;;;;;;4954363;28;20426;-85
2023/01/22 01:32:01;;;;;;;10.40;6.65;;;;;;;;;;4949205;28;20126;-86
2023/01/22 01:34:42;;;;;;;9.63;6.95;;;;;;;;;;4947892;29;20522;-86
2023/01/22 01:37:18;;;;;;;7.82;5.97;;;;;;;;;;4951306;28;20050;-86
2023/01/22 01:40:37;;;;;;;9.30;6.70;;;;;;;;;;4921107;29;20679;-86
2023/01/22 01:43:30;;;;;;;13.20;7.15;;;;;;;;;;4949074;29;20079;-86
2023/01/22 01:46:24;;;;;;;9.23;6.15;;;;;;;;;;4951672;28;20055;-86
2023/01/22 01:49:03;;;;;;;10.85;7.00;;;;;;;;;;4953030;28;20333;-86
2023/01/22 01:51:45;;;;;;;11.20;6.80;;;;;;;;;;4951851;29;20071;-86
2023/01/22 01:54:42;;;;;;;9.27;6.50;;;;;;;;;;4954295;28;20075;-86
2023/01/22 01:57:33;;;;;;;8.13;6.45;;;;;;;;;;4949684;29;20054;-87
2023/01/22 02:00:15;;;;;;;9.07;6.30;;;;;;;;;;4978658;22;20174;-78
2023/01/22 02:02:44;;;;;;;10.80;7.18;;;;;;;;;;4951612;28;20086;-79
2023/01/22 02:05:14;;;;;;;11.43;7.13;;;;;;;;;;4970459;28;20076;-80
2023/01/22 02:07:41;;;;;;;9.90;7.38;;;;;;;;;;4969131;28;20143;-79
2023/01/22 02:10:10;;;;;;;10.20;7.50;;;;;;;;;;4967933;28;20134;-79
2023/01/22 02:12:37;;;;;;;11.10;6.93;;;;;;;;;;4955673;28;20082;-80
2023/01/22 02:15:05;;;;;;;10.95;7.32;;;;;;;;;;4969109;28;20051;-78
2023/01/22 02:17:33;;;;;;;9.88;7.57;;;;;;;;;;4973885;28;20043;-79
2023/01/22 02:20:00;;;;;;;10.73;7.18;;;;;;;;;;4974485;28;20055;-80
2023/01/22 02:22:29;;;;;;;10.77;6.68;;;;;;;;;;4965716;28;20059;-79
2023/01/22 02:24:58;;;;;;;9.98;8.77;;;;;;;;;;4970643;28;20074;-79
2023/01/22 02:27:25;;;;;;;11.32;7.40;;;;;;;;;;4969779;28;20079;-80
2023/01/22 02:29:53;;;;;;;13.77;8.88;;;;;;;;;;4972110;28;20043;-79
2023/01/22 02:32:20;;;;;;;16.13;8.32;;;;;;;;;;4968752;28;20215;-80
2023/01/22 02:34:48;;;;;;;12.48;8.20;;;;;;;;;;4968687;28;20047;-79
2023/01/22 02:37:16;;;;;;;12.82;7.95;;;;;;;;;;4968400;28;20081;-80
2023/01/22 02:39:43;;;;;;;7.95;6.15;;;;;;;;;;4968265;28;20051;-80
2023/01/22 02:42:11;;;;;;;11.45;7.85;;;;;;;;;;4965980;28;20600;-80
2023/01/22 02:44:40;;;;;;;9.45;7.47;;;;;;;;;;4965495;28;20050;-79
2023/01/22 02:47:07;;;;;;;10.23;7.10;;;;;;;;;;4964962;28;20047;-79
2023/01/22 02:49:35;;;;;;;11.25;8.00;;;;;;;;;;4970132;28;20047;-79
2023/01/22 02:52:02;;;;;;;9.70;6.75;;;;;;;;;;4968256;28;20081;-79
2023/01/22 02:54:30;;;;;;;10.57;7.57;;;;;;;;;;4966549;28;20576;-80
2023/01/22 02:56:58;;;;;;;9.65;7.35;;;;;;;;;;4966743;28;20516;-80
2023/01/22 02:59:25;;;;;;;8.00;6.85;;;;;;;;;;4967469;28;20055;-80
2023/01/22 03:01:53;;;;;;;8.10;6.50;;;;;;;;;;4961808;28;20134;-80
2023/01/22 03:04:20;;;;;;;8.90;6.40;;;;;;;;;;4970270;28;20051;-79
2023/01/22 03:06:47;;;;;;;10.77;7.70;;;;;;;;;;4960053;28;20080;-80
2023/01/22 03:09:16;;;;;;;9.93;7.10;;;;;;;;;;4964556;28;20713;-80
2023/01/22 03:11:45;;;;;;;10.07;6.70;;;;;;;;;;4967619;28;20046;-78
2023/01/22 03:22:36;;;;;;;10.85;7.32;;;;;;;;;;4965329;28;20047;-79
2023/01/22 03:25:04;;;;;;;9.48;6.70;;;;;;;;;;4969176;28;20050;-80
2023/01/22 03:27:31;;;;;;;11.70;7.22;;;;;;;;;;4965442;28;20107;-76
2023/01/22 03:29:59;;;;;;;10.18;7.40;;;;;;;;;;4963421;28;20089;-77
2023/01/22 03:32:31;;;;;;;11.45;7.45;;;;;;;;;;4963156;28;20528;-77
2023/01/22 03:35:00;;;;;;;10.40;7.55;;;;;;;;;;4962108;28;20062;-77
2023/01/22 03:37:42;;;;;;;9.27;7.03;;;;;;;;;;4965662;28;20047;-77
2023/01/22 03:40:09;;;;;;;10.13;7.28;;;;;;;;;;4968777;28;20740;-77
2023/01/22 03:42:38;;;;;;;13.25;7.88;;;;;;;;;;4957780;28;20437;-78
2023/01/22 03:45:06;;;;;;;11.80;7.68;;;;;;;;;;4964404;28;20055;-77
2023/01/22 03:47:36;;;;;;;9.38;7.57;;;;;;;;;;4974219;28;20049;-77
2023/01/22 03:50:17;;;;;;;9.63;7.28;;;;;;;;;;4970010;28;20043;-77
2023/01/22 03:52:45;;;;;;;10.57;7.53;;;;;;;;;;4964098;28;20604;-77
2023/01/22 03:55:13;;;;;;;9.80;7.25;;;;;;;;;;4964251;28;20524;-77
2023/01/22 03:57:41;;;;;;;12.25;8.02;;;;;;;;;;4964340;28;20074;-77
2023/01/22 04:00:08;;;;;;;11.73;7.88;;;;;;;;;;4963625;28;20524;-78
2023/01/22 04:02:39;;;;;;;10.52;7.45;;;;;;;;;;4967173;28;20134;-77
2023/01/22 04:05:16;;;;;;;12.88;8.23;;;;;;;;;;4976016;28;20061;-76
2023/01/22 04:07:44;;;;;;;11.90;8.07;;;;;;;;;;4964243;28;20049;-77
2023/01/22 04:10:12;;;;;;;9.25;7.00;;;;;;;;;;4963070;28;20047;-77
2023/01/22 04:12:40;;;;;;;13.95;8.32;;;;;;;;;;4967367;28;20042;-77
2023/01/22 04:15:11;;;;;;;11.43;8.15;;;;;;;;;;4962996;28;20043;-77
2023/01/22 04:17:38;;;;;;;10.63;8.02;;;;;;;;;;4964790;28;20473;-77
2023/01/22 04:20:29;;;;;;;14.50;8.07;;;;;;;;;;4962508;28;20938;-77
2023/01/22 04:23:20;;;;;;;14.43;7.88;;;;;;;;;;4928851;28;20055;-77
2023/01/22 04:25:51;;;;;;;14.63;8.63;;;;;;;;;;4965719;28;20366;-77
2023/01/22 04:28:19;;;;;;;10.35;7.22;;;;;;;;;;4964749;28;20938;-77
2023/01/22 04:30:50;;;;;;;11.93;8.10;;;;;;;;;;4963808;28;20082;-77
2023/01/22 04:33:44;;;;;;;10.02;7.50;;;;;;;;;;4941006;28;20051;-78
2023/01/22 04:36:19;;;;;;;11.85;7.93;;;;;;;;;;4975256;28;20065;-77
2023/01/22 04:38:46;;;;;;;9.18;6.68;;;;;;;;;;4964603;28;20061;-77
2023/01/22 04:41:14;;;;;;;11.70;8.10;;;;;;;;;;4964849;28;20069;-77
2023/01/22 04:43:42;;;;;;;12.13;7.82;;;;;;;;;;4959389;28;20129;-78
2023/01/22 04:46:10;;;;;;;10.45;8.02;;;;;;;;;;4964526;28;20149;-77
2023/01/22 04:48:37;;;;;;;13.45;7.97;;;;;;;;;;4971424;28;20054;-77
2023/01/22 04:51:05;;;;;;;10.95;7.65;;;;;;;;;;4969022;28;20050;-77
2023/01/22 04:53:33;;;;;;;9.25;7.18;;;;;;;;;;4968321;28;20539;-77
2023/01/22 04:56:00;;;;;;;11.75;7.80;;;;;;;;;;4965880;28;20129;-77
2023/01/22 04:58:27;;;;;;;10.30;7.47;;;;;;;;;;4973536;28;20070;-77
2023/01/22 05:00:58;;;;;;;15.25;13.73;;;;;;;;;;4963193;28;20042;-77
2023/01/22 05:03:26;;;;;;;10.50;6.47;;;;;;;;;;4974929;28;20065;-77
2023/01/22 05:05:53;;;;;;;11.02;7.55;;;;;;;;;;4970814;28;20123;-77
2023/01/22 05:08:21;;;;;;;13.15;8.20;;;;;;;;;;4968406;28;20051;-76
2023/01/22 05:10:50;;;;;;;12.98;8.00;;;;;;;;;;4967471;28;20126;-77
2023/01/22 05:13:25;;;;;;;14.18;8.98;;;;;;;;;;4966818;28;20047;-77
2023/01/22 05:15:53;;;;;;;11.02;7.35;;;;;;;;;;4965599;28;20051;-77
2023/01/22 05:18:22;;;;;;;14.20;9.25;;;;;;;;;;4966717;28;20085;-78
2023/01/22 05:20:51;;;;;;;13.00;7.80;;;;;;;;;;4972615;28;20483;-80
2023/01/22 05:23:20;;;;;;;15.30;8.70;;;;;;;;;;4971136;28;20055;-79
2023/01/22 05:25:49;;;;;;;9.07;7.18;;;;;;;;;;4971526;28;20046;-79
2023/01/22 05:28:21;;;;;;;9.57;6.72;;;;;;;;;;4970218;28;20122;-80
2023/01/22 05:31:04;;;;;;;11.68;7.50;;;;;;;;;;4970011;28;20045;-79
2023/01/22 05:33:35;;;;;;;12.13;7.90;;;;;;;;;;4972004;28;20597;-79
2023/01/22 05:36:05;;;;;;;12.80;8.23;;;;;;;;;;4972590;28;20493;-79
2023/01/22 05:38:33;;;;;;;10.63;7.57;;;;;;;;;;4979426;28;20137;-79
2023/01/22 05:41:01;;;;;;;11.27;8.20;;;;;;;;;;4968884;28;20080;-81
2023/01/22 05:43:36;;;;;;;11.57;8.27;;;;;;;;;;4965617;28;20405;-80
2023/01/22 05:46:05;;;;;;;13.00;8.18;;;;;;;;;;4977452;28;20057;-81
2023/01/22 05:48:51;;;;;;;11.45;8.25;;;;;;;;;;4973394;28;20057;-81
2023/01/22 05:51:25;;;;;;;10.68;6.95;;;;;;;;;;4976527;28;20049;-80
2023/01/22 05:53:52;;;;;;;16.35;14.73;;;;;;;;;;4975925;28;20050;-81
2023/01/22 05:56:20;;;;;;;8.73;6.93;;;;;;;;;;4968959;28;20055;-80
2023/01/22 05:58:48;;;;;;;7.97;6.60;;;;;;;;;;4969046;28;20119;-81
2023/01/22 06:01:15;;;;;;;11.35;8.02;;;;;;;;;;4968487;28;20567;-79
2023/01/22 06:03:47;;;;;;;11.73;10.18;;;;;;;;;;4970035;28;20047;-79
2023/01/22 06:06:18;;;;;;;9.68;7.57;;;;;;;;;;4977498;28;20550;-79
2023/01/22 06:08:47;;;;;;;10.98;7.10;;;;;;;;;;4968174;28;20055;-80
2023/01/22 06:11:15;;;;;;;8.93;6.47;;;;;;;;;;4972726;28;20070;-79
2023/01/22 06:13:46;;;;;;;10.75;7.60;;;;;;;;;;4985014;28;20077;-81
2023/01/22 06:16:18;;;;;;;21.45;19.70;;;;;;;;;;4973154;28;20109;-79
2023/01/22 06:18:58;;;;;;;9.77;7.40;;;;;;;;;;4982167;28;20049;-79
2023/01/22 06:21:29;;;;;;;11.27;9.43;;;;;;;;;;4977790;28;20053;-79
2023/01/22 06:23:57;;;;;;;8.80;7.00;;;;;;;;;;4975459;28;20565;-79
2023/01/22 06:26:24;;;;;;;11.00;7.50;;;;;;;;;;4978344;28;20105;-79
2023/01/22 06:28:53;;;;;;;12.10;6.88;;;;;;;;;;4970921;28;20070;-81
2023/01/22 06:31:21;;;;;;;9.82;7.35;;;;;;;;;;4962371;28;20046;-80
2023/01/22 06:33:49;;;;;;;11.32;7.35;;;;;;;;;;4980619;28;20501;-80
2023/01/22 06:36:16;;;;;;;11.45;7.75;;;;;;;;;;4975699;28;20074;-80
2023/01/22 06:38:44;;;;;;;12.10;8.05;;;;;;;;;;4970912;28;20702;-80
2023/01/22 06:41:15;;;;;;;10.05;7.30;;;;;;;;;;4974333;28;20154;-79
2023/01/22 06:43:44;;;;;;;11.25;7.22;;;;;;;;;;4974015;28;20061;-80
2023/01/22 06:46:11;;;;;;;12.68;11.38;;;;;;;;;;4979011;28;20482;-79
2023/01/22 06:49:00;;;;;;;10.95;7.70;;;;;;;;;;4973449;28;20888;-80
2023/01/22 06:51:28;;;;;;;9.52;7.60;;;;;;;;;;4984521;28;20137;-80
2023/01/22 06:53:56;;;;;;;11.07;7.82;;;;;;;;;;4976172;28;20129;-80
2023/01/22 06:56:24;;;;;;;10.68;7.55;;;;;;;;;;4976805;28;20034;-79
2023/01/22 06:58:51;;;;;;;12.15;8.55;;;;;;;;;;4961386;28;20055;-80
2023/01/22 07:01:19;;;;;;;16.00;8.63;;;;;;;;;;4970361;28;20542;-80
2023/01/22 07:03:46;;;;;;;12.65;8.68;;;;;;;;;;4971879;28;20058;-81
2023/01/22 07:06:17;;;;;;;13.60;8.73;;;;;;;;;;4963952;28;20050;-80
2023/01/22 07:08:45;;;;;;;12.23;8.80;;;;;;;;;;4959590;28;20166;-80
2023/01/22 07:11:14;;;;;;;11.73;8.45;;;;;;;;;;4967409;28;20731;-79
2023/01/22 07:13:42;;;;;;;12.80;8.80;;;;;;;;;;4964407;28;20045;-79
2023/01/22 07:16:10;;;;;;;9.80;7.70;;;;;;;;;;4965595;28;20057;-80
2023/01/22 07:18:37;;;;;;;10.80;8.02;;;;;;;;;;4962059;28;20070;-81
2023/01/22 07:21:05;;;;;;;12.52;7.97;;;;;;;;;;4971821;28;20818;-81
2023/01/22 07:23:33;;;;;;;12.88;8.75;;;;;;;;;;4955767;28;20043;-80
2023/01/22 07:26:00;;;;;;;11.10;8.27;;;;;;;;;;4963767;28;20062;-80
2023/01/22 07:28:27;;;;;;;13.00;9.15;;;;;;;;;;4959599;28;20157;-80
2023/01/22 07:30:55;;;;;;;12.77;8.90;;;;;;;;;;4959847;28;20058;-81
2023/01/22 07:33:23;;;;;;;13.65;9.60;;;;;;;;;;4960806;28;20047;-80
2023/01/22 07:35:56;;;;;;;15.50;10.52;;;;;;;;;;4965083;28;20053;-79
2023/01/22 07:38:26;;;;;;;11.90;8.40;;;;;;;;;;4960692;28;20581;-80
2023/01/22 07:40:54;;;;;;;12.88;8.68;;;;;;;;;;4946092;28;20057;-79
2023/01/22 07:43:21;;;;;;;13.00;9.00;;;;;;;;;;4950039;28;20058;-79
2023/01/22 07:45:49;;;;;;;16.45;9.70;;;;;;;;;;4959868;28;20066;-79
2023/01/22 07:48:16;;;;;;;15.98;9.60;;;;;;;;;;4957773;28;20046;-81
2023/01/22 07:50:43;;;;;;;12.88;8.57;;;;;;;;;;4947262;28;20058;-79
2023/01/22 07:53:11;;;;;;;12.23;9.05;;;;;;;;;;4954519;28;20460;-80
2023/01/22 07:55:40;;;;;;;15.63;8.88;;;;;;;;;;4953844;28;20505;-80
2023/01/22 07:58:07;;;;;;;18.42;16.48;;;;;;;;;;4951123;28;20047;-79
2023/01/22 08:00:35;;;;;;;13.13;9.43;;;;;;;;;;4943830;28;20050;-79
2023/01/22 08:03:04;;;;;;;13.70;8.50;;;;;;;;;;4967095;28;20469;-80
2023/01/22 08:05:31;;;;;;;15.88;10.05;;;;;;;;;;4967613;28;20125;-79
2023/01/22 08:07:59;;;;;;;14.75;9.25;;;;;;;;;;4954583;28;20479;-81
2023/01/22 08:10:31;;;;;;;16.30;12.68;;;;;;;;;;4956698;28;20047;-79
2023/01/22 08:12:58;;;;;;;13.63;9.48;;;;;;;;;;4960944;28;20823;-79
2023/01/22 08:15:28;;;;;;;12.70;8.27;;;;;;;;;;4970130;28;20046;-79
2023/01/22 08:17:55;;;;;;;19.65;14.20;;;;;;;;;;4958766;28;20121;-80
2023/01/22 08:20:23;;;;;;;20.48;17.65;;;;;;;;;;4956606;28;20376;-79
2023/01/22 08:22:50;;;;;;;16.75;10.00;;;;;;;;;;4962454;28;20063;-79
2023/01/22 08:25:19;;;;;;;30.83;27.23;;;;;;;;;;4963906;28;20417;-80
2023/01/22 08:27:47;;;;;;;22.25;10.38;;;;;;;;;;4963388;28;20057;-80
2023/01/22 08:30:15;;;;;;;18.83;10.77;;;;;;;;;;4965306;28;20046;-80
2023/01/22 08:32:44;;;;;;;16.50;10.48;;;;;;;;;;4954706;28;20468;-80
2023/01/22 08:35:12;;;;;;;21.45;17.45;;;;;;;;;;4964644;28;20047;-80
2023/01/22 08:37:39;;;;;;;18.35;11.02;;;;;;;;;;4967752;28;20312;-81
2023/01/22 08:40:08;;;;;;;17.33;11.13;;;;;;;;;;4951166;28;20055;-80
2023/01/22 08:42:36;;;;;;;16.13;10.15;;;;;;;;;;4956334;28;20058;-81
2023/01/22 08:45:03;;;;;;;17.48;10.52;;;;;;;;;;4957906;28;20063;-79
2023/01/22 08:47:31;;;;;;;15.90;10.23;;;;;;;;;;4955136;28;20070;-81
2023/01/22 08:49:58;;;;;;;15.68;10.40;;;;;;;;;;4958145;28;20054;-80
2023/01/22 08:52:26;;;;;;;18.15;9.93;;;;;;;;;;4954532;28;20043;-80
2023/01/22 08:54:53;;;;;;;14.38;8.95;;;;;;;;;;4952744;28;20392;-79
2023/01/22 08:57:20;;;;;;;17.55;9.55;;;;;;;;;;4964616;28;20051;-81
2023/01/22 08:59:48;;;;;;;14.27;12.77;;;;;;;;;;4964478;28;20046;-80
2023/01/22 09:02:27;;;;;;;12.95;8.70;;;;;;;;;;4960396;28;20043;-81
2023/01/22 09:04:54;;;;;;;12.70;8.52;;;;;;;;;;4971317;28;20085;-79
2023/01/22 09:07:22;;;;;;;13.77;9.77;;;;;;;;;;4969749;28;20055;-81
2023/01/22 09:09:49;;;;;;;23.25;11.73;;;;;;;;;;4967807;28;20075;-79
2023/01/22 09:12:16;;;;;;;21.23;11.80;;;;;;;;;;4959289;28;20110;-80
2023/01/22 09:14:44;;;;;;;24.15;13.13;;;;;;;;;;4961517;28;20416;-80
2023/01/22 09:17:11;;;;;;;20.90;11.43;;;;;;;;;;4964814;28;20050;-79
2023/01/22 09:19:39;;;;;;;14.25;8.40;;;;;;;;;;4968405;28;20055;-79
2023/01/22 09:22:06;;;;;;;15.00;9.02;;;;;;;;;;4962431;28;20057;-79
2023/01/22 09:24:33;;;;;;;14.93;9.60;;;;;;;;;;4970585;28;20487;-79
2023/01/22 09:27:01;;;;;;;17.17;10.48;;;;;;;;;;4988482;28;20088;-80
2023/01/22 09:29:28;;;;;;;11.98;8.32;;;;;;;;;;4971021;28;20055;-80
2023/01/22 09:31:58;;;;;;;28.45;26.00;;;;;;;;;;4949458;28;20047;-78
2023/01/22 09:34:26;;;;;;;12.27;8.90;;;;;;;;;;4952574;28;20049;-80
2023/01/22 09:36:53;;;;;;;12.10;8.48;;;;;;;;;;4950767;28;20509;-79
2023/01/22 09:39:21;;;;;;;9.80;7.03;;;;;;;;;;4953059;29;20529;-79
2023/01/22 09:41:53;;;;;;;27.85;25.73;;;;;;;;;;4971563;28;20496;-80
2023/01/22 09:44:32;;;;;;;10.63;8.98;;;;;;;;;;4972160;28;20576;-79
2023/01/22 09:47:03;;;;;;;7.35;6.25;;;;;;;;;;4973305;28;20531;-79
2023/01/22 09:49:37;;;;;;;12.65;11.23;;;;;;;;;;4973027;28;20043;-79
2023/01/22 09:52:05;;;;;;;9.63;7.30;;;;;;;;;;4972893;28;20053;-79
2023/01/22 09:54:33;;;;;;;11.90;7.72;;;;;;;;;;4972826;28;20141;-79
2023/01/22 09:57:02;;;;;;;13.68;12.32;;;;;;;;;;4969070;28;20078;-78
2023/01/22 09:59:37;;;;;;;11.35;7.38;;;;;;;;;;4980646;28;20047;-78
2023/01/22 10:02:31;;;;;;;10.38;7.50;;;;;;;;;;4972453;28;20164;-79
2023/01/22 10:05:17;;;;;;;16.30;14.68;;;;;;;;;;4971373;28;20051;-78
2023/01/22 10:07:50;;;;;;;8.57;6.78;;;;;;;;;;4975341;28;20074;-78
2023/01/22 10:10:20;;;;;;;11.38;7.47;;;;;;;;;;4974689;28;20075;-79
2023/01/22 10:13:06;;;;;;;9.10;6.82;;;;;;;;;;4975428;28;20097;-78
2023/01/22 10:15:34;;;;;;;10.48;7.03;;;;;;;;;;4974311;28;20524;-78
2023/01/22 10:18:04;;;;;;;12.60;10.27;;;;;;;;;;4977913;28;20461;-78
2023/01/22 10:20:32;;;;;;;10.13;7.65;;;;;;;;;;4977608;28;20111;-79
2023/01/22 10:23:05;;;;;;;10.73;7.55;;;;;;;;;;4974279;28;20050;-78
2023/01/22 10:25:33;;;;;;;11.10;7.60;;;;;;;;;;4969904;28;20149;-79
2023/01/22 10:28:02;;;;;;;9.98;7.28;;;;;;;;;;4975585;28;20066;-78
2023/01/22 10:30:30;;;;;;;9.05;6.60;;;;;;;;;;4968492;28;20053;-78
2023/01/22 10:33:05;;;;;;;9.45;7.22;;;;;;;;;;4975936;28;20101;-79
2023/01/22 10:35:41;;;;;;;10.82;7.95;;;;;;;;;;4975916;28;20046;-78
2023/01/22 10:38:20;;;;;;;9.55;7.50;;;;;;;;;;4975010;28;20055;-78
2023/01/22 10:40:52;;;;;;;10.65;8.23;;;;;;;;;;4971988;28;20046;-79
2023/01/22 10:43:19;;;;;;;10.07;7.25;;;;;;;;;;4953972;28;20066;-79
2023/01/22 10:45:54;;;;;;;10.07;7.97;;;;;;;;;;4955880;28;20135;-78
2023/01/22 10:48:22;;;;;;;10.93;7.55;;;;;;;;;;4973038;28;20054;-79
2023/01/22 10:51:03;;;;;;;15.80;12.95;;;;;;;;;;4973923;28;20576;-78
2023/01/22 10:53:32;;;;;;;12.65;11.45;;;;;;;;;;4976250;28;20057;-79
2023/01/22 10:56:00;;;;;;;11.85;7.68;;;;;;;;;;4977597;28;20046;-78
2023/01/22 10:58:32;;;;;;;9.80;7.75;;;;;;;;;;4978023;28;20047;-78
2023/01/22 11:01:05;;;;;;;10.20;8.07;;;;;;;;;;4975924;28;20062;-78
2023/01/22 11:03:35;;;;;;;10.82;7.47;;;;;;;;;;4976467;28;20047;-79
2023/01/22 11:06:04;;;;;;;12.10;7.90;;;;;;;;;;4974744;28;20062;-79
2023/01/22 11:08:39;;;;;;;10.32;8.10;;;;;;;;;;4974933;28;20050;-80
2023/01/22 11:11:08;;;;;;;8.38;7.38;;;;;;;;;;4975412;28;20078;-79
2023/01/22 11:14:02;;;;;;;13.10;7.95;;;;;;;;;;4971871;28;20050;-78
2023/01/22 11:16:36;;;;;;;9.45;7.30;;;;;;;;;;4969941;28;20077;-78
2023/01/22 11:19:14;;;;;;;11.23;8.70;;;;;;;;;;4969553;28;20054;-78
2023/01/22 11:21:50;;;;;;;10.75;7.85;;;;;;;;;;4969976;28;20121;-78
2023/01/22 11:24:21;;;;;;;9.88;7.13;;;;;;;;;;4970891;28;20568;-78
2023/01/22 11:27:04;;;;;;;10.13;7.55;;;;;;;;;;4972150;28;20066;-78
2023/01/22 11:29:47;;;;;;;10.48;7.32;;;;;;;;;;4972543;28;20551;-78
2023/01/22 11:32:33;;;;;;;10.30;7.65;;;;;;;;;;4972435;28;20118;-78
2023/01/22 11:35:14;;;;;;;11.13;8.45;;;;;;;;;;4970914;28;20043;-79
2023/01/22 11:38:14;;;;;;;8.98;7.68;;;;;;;;;;4972491;28;20047;-78
2023/01/22 11:40:41;;;;;;;9.73;7.30;;;;;;;;;;4950252;28;20402;-77
2023/01/22 11:43:28;;;;;;;11.50;8.43;;;;;;;;;;4972163;28;20062;-78
2023/01/22 11:45:55;;;;;;;10.30;7.78;;;;;;;;;;4972519;28;20058;-78
2023/01/22 11:48:35;;;;;;;10.43;7.50;;;;;;;;;;4974053;28;20065;-78
2023/01/22 11:51:08;;;;;;;11.50;8.20;;;;;;;;;;4974968;28;20061;-78
2023/01/22 11:53:57;;;;;;;9.95;7.63;;;;;;;;;;4972775;28;20049;-79
2023/01/22 11:56:37;;;;;;;11.30;8.50;;;;;;;;;;4970483;28;20080;-78
2023/01/22 11:59:11;;;;;;;17.85;15.98;;;;;;;;;;4972443;28;20066;-78
2023/01/22 12:01:57;;;;;;;58.13;52.22;;;;;;;;;;4972246;28;20414;-79
2023/01/22 12:04:30;;;;;;;12.50;8.43;;;;;;;;;;4969279;28;20077;-79
2023/01/22 12:07:17;;;;;;;10.80;8.23;;;;;;;;;;4972682;28;20047;-79
2023/01/22 12:09:44;;;;;;;9.77;7.90;;;;;;;;;;4972140;28;20443;-79
2023/01/22 12:12:40;;;;;;;12.95;9.02;;;;;;;;;;4972256;28;20054;-79
2023/01/22 12:15:25;;;;;;;9.68;7.85;;;;;;;;;;4972808;28;20058;-79
2023/01/22 12:18:04;;;;;;;10.52;7.75;;;;;;;;;;4973647;28;20064;-79
2023/01/22 12:20:35;;;;;;;15.07;9.82;;;;;;;;;;4973387;28;20812;-79
2023/01/22 12:23:26;;;;;;;14.73;9.32;;;;;;;;;;4973017;28;20072;-79
2023/01/22 12:25:56;;;;;;;13.30;9.68;;;;;;;;;;4966293;28;20057;-79
2023/01/22 12:28:23;;;;;;;15.95;12.65;;;;;;;;;;4973134;28;20106;-79
2023/01/22 12:31:02;;;;;;;11.57;8.32;;;;;;;;;;4974555;28;20066;-79
2023/01/22 12:33:31;;;;;;;11.98;8.55;;;;;;;;;;4966690;28;20112;-79
2023/01/22 12:36:00;;;;;;;10.15;7.95;;;;;;;;;;4973872;28;20057;-79
2023/01/22 12:38:27;;;;;;;10.00;7.97;;;;;;;;;;4972572;28;20047;-79
2023/01/22 12:41:03;;;;;;;14.45;10.20;;;;;;;;;;4975248;28;20077;-79
2023/01/22 12:43:37;;;;;;;12.07;8.55;;;;;;;;;;4973190;28;20046;-78
2023/01/22 12:46:11;;;;;;;11.35;8.35;;;;;;;;;;4974023;28;20043;-79
2023/01/22 12:48:54;;;;;;;13.05;10.25;;;;;;;;;;4968591;28;20051;-79
2023/01/22 12:51:34;;;;;;;10.43;7.88;;;;;;;;;;4953724;28;20106;-79
2023/01/22 12:54:20;;;;;;;16.67;15.00;;;;;;;;;;4936513;29;20143;-80
2023/01/22 12:56:49;;;;;;;13.50;8.75;;;;;;;;;;4954557;29;20061;-78
2023/01/22 12:59:42;;;;;;;12.25;8.55;;;;;;;;;;4952771;28;20062;-80
2023/01/22 13:02:34;;;;;;;12.90;8.75;;;;;;;;;;4945772;28;20055;-79
2023/01/22 13:05:09;;;;;;;12.85;8.55;;;;;;;;;;4972223;28;20129;-79
2023/01/22 13:07:39;;;;;;;12.95;8.15;;;;;;;;;;4982468;28;20050;-80
2023/01/22 13:10:19;;;;;;;15.20;9.32;;;;;;;;;;4977168;28;20067;-79
2023/01/22 13:12:49;;;;;;;16.42;10.00;;;;;;;;;;4975566;28;20058;-79
2023/01/22 13:15:19;;;;;;;13.23;10.07;;;;;;;;;;4975741;23;20047;-85
2023/01/22 13:17:54;;;;;;;13.35;9.00;;;;;;;;;;4975863;28;20038;-85
2023/01/22 13:20:34;;;;;;;13.05;9.82;;;;;;;;;;4967534;28;20051;-86
2023/01/22 13:23:04;;;;;;;13.80;9.43;;;;;;;;;;4974126;28;20414;-86
2023/01/22 13:25:34;;;;;;;13.55;10.90;;;;;;;;;;4955366;28;20051;-86
2023/01/22 13:28:02;;;;;;;16.77;9.90;;;;;;;;;;4955585;29;20075;-86
2023/01/22 13:30:32;;;;;;;13.00;9.55;;;;;;;;;;4964367;28;20476;-86
2023/01/22 13:33:03;;;;;;;21.38;14.38;;;;;;;;;;4973790;28;20071;-88
2023/01/22 13:35:39;;;;;;;13.23;9.05;;;;;;;;;;4973802;28;20046;-87
2023/01/22 13:38:16;;;;;;;13.05;9.00;;;;;;;;;;4974656;28;20046;-87
2023/01/22 13:40:46;;;;;;;13.18;8.32;;;;;;;;;;4982294;28;20062;-86
2023/01/22 13:43:23;;;;;;;16.13;9.70;;;;;;;;;;4967179;28;20398;-87
2023/01/22 13:45:51;;;;;;;23.30;12.65;;;;;;;;;;4962887;28;20532;-87
2023/01/22 13:48:23;;;;;;;24.23;16.65;;;;;;;;;;4979534;28;20055;-88
2023/01/22 13:51:17;;;;;;;21.30;12.02;;;;;;;;;;4981913;28;20138;-87
2023/01/22 13:53:49;;;;;;;14.15;10.38;;;;;;;;;;4979026;28;20121;-87
2023/01/22 13:56:20;;;;;;;15.90;10.48;;;;;;;;;;4981425;28;20053;-86
2023/01/22 13:58:48;;;;;;;17.35;10.55;;;;;;;;;;4979748;28;20094;-87
2023/01/22 14:01:26;;;;;;;15.40;10.23;;;;;;;;;;4956583;28;20130;-87
2023/01/22 14:04:01;;;;;;;13.55;9.18;;;;;;;;;;4973324;28;20063;-87
2023/01/22 14:06:48;;;;;;;17.13;10.38;;;;;;;;;;4975614;28;20065;-87
2023/01/22 14:09:29;;;;;;;26.75;20.88;;;;;;;;;;4973979;28;20408;-89
2023/01/22 14:12:11;;;;;;;12.48;9.55;;;;;;;;;;4973278;28;20138;-87
2023/01/22 14:14:40;;;;;;;15.70;11.10;;;;;;;;;;4955413;28;20129;-87
2023/01/22 14:17:08;;;;;;;15.52;11.93;;;;;;;;;;4971348;28;20054;-86
2023/01/22 14:19:35;;;;;;;15.57;10.65;;;;;;;;;;4972120;28;20097;-87
2023/01/22 14:22:05;;;;;;;14.93;10.77;;;;;;;;;;4955607;28;20054;-89
2023/01/22 14:24:32;;;;;;;16.35;11.23;;;;;;;;;;4973529;28;20134;-87
2023/01/22 14:27:02;;;;;;;18.95;11.85;;;;;;;;;;4972395;28;20051;-88
2023/01/22 14:29:35;;;;;;;15.65;11.15;;;;;;;;;;4973376;28;20155;-87
2023/01/22 14:32:03;;;;;;;20.85;11.48;;;;;;;;;;4955652;28;20078;-87
2023/01/22 14:34:31;;;;;;;19.95;11.23;;;;;;;;;;4970849;28;20043;-85
2023/01/22 14:37:04;;;;;;;15.00;11.73;;;;;;;;;;4953424;28;20429;-89
2023/01/22 14:39:35;;;;;;;12.25;9.32;;;;;;;;;;4950887;28;20065;-89
2023/01/22 14:42:02;;;;;;;16.85;10.80;;;;;;;;;;4955480;28;20125;-88
2023/01/22 14:44:31;;;;;;;19.73;17.10;;;;;;;;;;4972012;28;20586;-88
2023/01/22 14:47:08;;;;;;;14.25;9.55;;;;;;;;;;4970274;28;20425;-88
2023/01/22 14:49:39;;;;;;;13.38;9.52;;;;;;;;;;4968783;28;20087;-88
2023/01/22 14:52:11;;;;;;;17.30;10.60;;;;;;;;;;4970461;28;20516;-87
2023/01/22 14:54:59;;;;;;;15.33;10.40;;;;;;;;;;4947171;28;20142;-89
2023/01/22 14:57:27;;;;;;;13.40;10.05;;;;;;;;;;4975095;28;20050;-88
2023/01/22 15:00:00;;;;;;;17.98;9.63;;;;;;;;;;4970350;28;20456;-87
2023/01/22 15:02:28;;;;;;;14.30;10.60;;;;;;;;;;4969599;28;20440;-88
2023/01/22 15:04:56;;;;;;;15.60;10.77;;;;;;;;;;4954391;28;20412;-88
2023/01/22 15:07:29;;;;;;;14.38;10.90;;;;;;;;;;4971626;28;20047;-88